Aeroporto :
LOGIN :

Iscrizione | Disclaimer

   EN    FR    IT 

 










Sommario :    VFR   VFR Marginale   IFR   IFR Intensivo   IFR Molto Intensivo
Visibilità : 
Base nubi : 
>= 8 km
>= 3000ft
5 / 8 km
1000 / 3000 ft
1500m / 5 km
500 / 1000 ft
800 / 1500m
200 / 500 ft
< 800m
< 200 ft
Simboli :   Temporali  Nebbia  Neve Forte  Precipitazioni Forti  Vento > 20 kt
SIGMETs :   Varie  Temporali  Ghiacco  Turbolenza  Onda orograficha  Ceneri Vulcaniche







- Altitudine del aeroporto : 1959 ft
- Codice IATA : HOQ


EDQM - Hof Plauen

ULTIMO METAR :
  • 211020Z 23011KT 200V270 9999 DZ FEW035 SCT051 BKN074 21/15 Q1021

METARs OBSOLETI :
  • 210950Z 24009KT 190V290 9999 SCT035 BKN096 23/15 Q1021
  • 210920Z 23009KT 190V280 9999 FEW032 SCT057 22/14 Q1021
  • 210850Z 23008KT 150V280 9999 SCT027 BKN041 21/15 Q1021
  • 210820Z 26008KT 230V300 9999 FEW040 SCT062 20/15 Q1021
  • 210750Z 25007KT 210V280 9999 FEW045 SCT057 BKN092 19/15 Q1020

TAF AMD TAF EDQM
Valido dal 21 a 10 ore il 21 a 18 ore UTC


211004Z 2110/2118 27010KT 9999 SCT030
PROB30
TEMPO 2110/2114 30015G25KT TSRA BKN030CB
Nessun NOTAM noto per questo aeroporto.



MetMap, La meteo Aeronautica in un colpo d'occhio ! - Copyright ORBIFLY Dicembre 2007 - Disclaimer

ORBIFLY MET'MAP TEAM :

Programmazione e sviluppo : Alexandra Zaïnal
Concezione e sviluppo : Baudouin d'Aumeries
Co-Programmazione e sviluppo : Marc-Olivier Méhu
Supporto tecnico e logistico : Manuel Goepfert
Aiuto per la traduzione : Arnaldo La Scala

Contatto : metmap@orbifly.com




FONTI E CREDITI :

   NOAA